sensor_id;sensor_type;location;lat;lon;timestamp;P1;durP1;ratioP1;P2;durP2;ratioP2
36709;SDS011;22694;51.040;3.684;2022-08-21T00:00:51;4.03;;;1.40;;
36709;SDS011;22694;51.040;3.684;2022-08-21T00:03:17;2.28;;;1.40;;
36709;SDS011;22694;51.040;3.684;2022-08-21T00:05:44;3.63;;;1.80;;
36709;SDS011;22694;51.040;3.684;2022-08-21T00:08:12;3.00;;;1.38;;
36709;SDS011;22694;51.040;3.684;2022-08-21T00:10:39;3.20;;;1.92;;
36709;SDS011;22694;51.040;3.684;2022-08-21T00:13:05;2.67;;;1.35;;
36709;SDS011;22694;51.040;3.684;2022-08-21T00:15:33;2.10;;;1.20;;
36709;SDS011;22694;51.040;3.684;2022-08-21T00:18:00;3.20;;;1.30;;
36709;SDS011;22694;51.040;3.684;2022-08-21T00:20:25;2.47;;;1.23;;
36709;SDS011;22694;51.040;3.684;2022-08-21T00:22:52;4.03;;;1.45;;
36709;SDS011;22694;51.040;3.684;2022-08-21T00:25:18;1.75;;;1.17;;
36709;SDS011;22694;51.040;3.684;2022-08-21T00:27:45;2.95;;;1.42;;
36709;SDS011;22694;51.040;3.684;2022-08-21T00:30:12;2.85;;;1.20;;
36709;SDS011;22694;51.040;3.684;2022-08-21T00:32:40;3.78;;;1.30;;
36709;SDS011;22694;51.040;3.684;2022-08-21T00:35:07;3.00;;;1.20;;
36709;SDS011;22694;51.040;3.684;2022-08-21T00:37:36;4.68;;;1.70;;
36709;SDS011;22694;51.040;3.684;2022-08-21T00:40:04;3.17;;;1.20;;
36709;SDS011;22694;51.040;3.684;2022-08-21T00:42:30;2.67;;;1.20;;
36709;SDS011;22694;51.040;3.684;2022-08-21T00:44:56;3.28;;;1.23;;
36709;SDS011;22694;51.040;3.684;2022-08-21T00:47:22;1.83;;;1.20;;
36709;SDS011;22694;51.040;3.684;2022-08-21T00:49:48;2.83;;;1.30;;
36709;SDS011;22694;51.040;3.684;2022-08-21T00:52:16;2.88;;;1.38;;
36709;SDS011;22694;51.040;3.684;2022-08-21T00:54:45;3.72;;;1.45;;
36709;SDS011;22694;51.040;3.684;2022-08-21T00:57:15;1.42;;;1.17;;
36709;SDS011;22694;51.040;3.684;2022-08-21T00:59:45;2.30;;;1.27;;
36709;SDS011;22694;51.040;3.684;2022-08-21T01:02:15;1.83;;;1.00;;
36709;SDS011;22694;51.040;3.684;2022-08-21T01:04:41;2.05;;;1.10;;
36709;SDS011;22694;51.040;3.684;2022-08-21T01:07:07;3.38;;;1.20;;
36709;SDS011;22694;51.040;3.684;2022-08-21T01:09:33;2.08;;;1.20;;
36709;SDS011;22694;51.040;3.684;2022-08-21T01:11:59;1.92;;;1.10;;
36709;SDS011;22694;51.040;3.684;2022-08-21T01:14:25;2.97;;;1.20;;
36709;SDS011;22694;51.040;3.684;2022-08-21T01:16:51;3.05;;;1.40;;
36709;SDS011;22694;51.040;3.684;2022-08-21T01:19:18;3.13;;;1.45;;
36709;SDS011;22694;51.040;3.684;2022-08-21T01:21:45;2.10;;;1.10;;
36709;SDS011;22694;51.040;3.684;2022-08-21T01:24:12;2.70;;;1.20;;
36709;SDS011;22694;51.040;3.684;2022-08-21T01:26:38;3.17;;;1.20;;
36709;SDS011;22694;51.040;3.684;2022-08-21T01:31:41;3.22;;;1.27;;
36709;SDS011;22694;51.040;3.684;2022-08-21T01:34:07;1.90;;;1.05;;
36709;SDS011;22694;51.040;3.684;2022-08-21T01:36:34;3.40;;;1.33;;
36709;SDS011;22694;51.040;3.684;2022-08-21T01:39:00;2.72;;;1.17;;
36709;SDS011;22694;51.040;3.684;2022-08-21T01:41:26;2.85;;;1.30;;
36709;SDS011;22694;51.040;3.684;2022-08-21T01:43:52;3.72;;;1.13;;
36709;SDS011;22694;51.040;3.684;2022-08-21T01:46:18;2.63;;;1.63;;
36709;SDS011;22694;51.040;3.684;2022-08-21T01:48:44;3.28;;;1.35;;
36709;SDS011;22694;51.040;3.684;2022-08-21T01:51:10;2.40;;;1.33;;
36709;SDS011;22694;51.040;3.684;2022-08-21T01:53:36;1.77;;;1.00;;
36709;SDS011;22694;51.040;3.684;2022-08-21T01:56:04;2.53;;;1.17;;
36709;SDS011;22694;51.040;3.684;2022-08-21T01:58:31;2.53;;;1.13;;
36709;SDS011;22694;51.040;3.684;2022-08-21T02:00:58;3.28;;;1.25;;
36709;SDS011;22694;51.040;3.684;2022-08-21T02:03:23;5.65;;;1.13;;
36709;SDS011;22694;51.040;3.684;2022-08-21T02:05:49;6.63;;;1.75;;
36709;SDS011;22694;51.040;3.684;2022-08-21T02:08:14;2.13;;;1.27;;
36709;SDS011;22694;51.040;3.684;2022-08-21T02:10:40;3.60;;;1.50;;
36709;SDS011;22694;51.040;3.684;2022-08-21T02:13:06;5.45;;;1.40;;
36709;SDS011;22694;51.040;3.684;2022-08-21T02:15:32;2.67;;;0.95;;
36709;SDS011;22694;51.040;3.684;2022-08-21T02:17:58;4.00;;;1.10;;
36709;SDS011;22694;51.040;3.684;2022-08-21T02:20:30;3.10;;;1.40;;
36709;SDS011;22694;51.040;3.684;2022-08-21T02:22:57;2.67;;;1.25;;
36709;SDS011;22694;51.040;3.684;2022-08-21T02:25:24;4.25;;;1.70;;
36709;SDS011;22694;51.040;3.684;2022-08-21T02:27:51;4.13;;;1.15;;
36709;SDS011;22694;51.040;3.684;2022-08-21T02:30:21;8.10;;;2.00;;
36709;SDS011;22694;51.040;3.684;2022-08-21T02:32:49;6.10;;;1.50;;
36709;SDS011;22694;51.040;3.684;2022-08-21T02:35:15;3.50;;;1.10;;
36709;SDS011;22694;51.040;3.684;2022-08-21T02:37:58;2.50;;;1.20;;
36709;SDS011;22694;51.040;3.684;2022-08-21T02:40:30;3.30;;;1.30;;
36709;SDS011;22694;51.040;3.684;2022-08-21T02:42:57;3.95;;;1.38;;
36709;SDS011;22694;51.040;3.684;2022-08-21T02:45:26;3.80;;;1.45;;
36709;SDS011;22694;51.040;3.684;2022-08-21T02:47:57;4.10;;;1.40;;
36709;SDS011;22694;51.040;3.684;2022-08-21T02:50:27;4.60;;;1.50;;
36709;SDS011;22694;51.040;3.684;2022-08-21T02:52:58;3.13;;;1.25;;
36709;SDS011;22694;51.040;3.684;2022-08-21T02:55:26;3.72;;;1.38;;
36709;SDS011;22694;51.040;3.684;2022-08-21T02:57:54;2.05;;;0.93;;
36709;SDS011;22694;51.040;3.684;2022-08-21T03:00:20;3.50;;;1.30;;
36709;SDS011;22694;51.040;3.684;2022-08-21T03:02:49;3.38;;;1.20;;
36709;SDS011;22694;51.040;3.684;2022-08-21T03:05:15;4.00;;;1.38;;
36709;SDS011;22694;51.040;3.684;2022-08-21T03:07:42;1.45;;;0.85;;
36709;SDS011;22694;51.040;3.684;2022-08-21T03:10:09;3.85;;;1.00;;
36709;SDS011;22694;51.040;3.684;2022-08-21T03:12:35;2.78;;;1.30;;
36709;SDS011;22694;51.040;3.684;2022-08-21T03:15:02;2.05;;;1.10;;
36709;SDS011;22694;51.040;3.684;2022-08-21T03:17:29;3.03;;;1.15;;
36709;SDS011;22694;51.040;3.684;2022-08-21T03:19:54;3.35;;;1.40;;
36709;SDS011;22694;51.040;3.684;2022-08-21T03:22:20;3.35;;;1.20;;
36709;SDS011;22694;51.040;3.684;2022-08-21T03:24:45;4.30;;;1.02;;
36709;SDS011;22694;51.040;3.684;2022-08-21T03:27:11;2.03;;;1.17;;
36709;SDS011;22694;51.040;3.684;2022-08-21T03:29:40;2.90;;;1.15;;
36709;SDS011;22694;51.040;3.684;2022-08-21T03:32:05;1.48;;;1.02;;
36709;SDS011;22694;51.040;3.684;2022-08-21T03:34:34;2.33;;;1.08;;
36709;SDS011;22694;51.040;3.684;2022-08-21T03:37:01;1.90;;;1.10;;
36709;SDS011;22694;51.040;3.684;2022-08-21T03:39:28;4.78;;;1.45;;
36709;SDS011;22694;51.040;3.684;2022-08-21T03:41:54;3.20;;;1.20;;
36709;SDS011;22694;51.040;3.684;2022-08-21T03:44:19;3.58;;;1.40;;
36709;SDS011;22694;51.040;3.684;2022-08-21T03:46:45;2.35;;;1.20;;
36709;SDS011;22694;51.040;3.684;2022-08-21T03:49:11;2.15;;;1.15;;
36709;SDS011;22694;51.040;3.684;2022-08-21T03:51:37;5.63;;;1.65;;
36709;SDS011;22694;51.040;3.684;2022-08-21T03:54:03;1.77;;;1.10;;
36709;SDS011;22694;51.040;3.684;2022-08-21T03:56:28;2.83;;;1.02;;
36709;SDS011;22694;51.040;3.684;2022-08-21T03:58:54;2.55;;;1.08;;
36709;SDS011;22694;51.040;3.684;2022-08-21T04:01:20;2.28;;;1.10;;
36709;SDS011;22694;51.040;3.684;2022-08-21T04:03:46;3.08;;;1.00;;
36709;SDS011;22694;51.040;3.684;2022-08-21T04:06:11;1.52;;;1.10;;
36709;SDS011;22694;51.040;3.684;2022-08-21T04:08:37;2.53;;;1.00;;
36709;SDS011;22694;51.040;3.684;2022-08-21T04:11:03;2.58;;;1.13;;
36709;SDS011;22694;51.040;3.684;2022-08-21T04:13:30;3.00;;;1.30;;
36709;SDS011;22694;51.040;3.684;2022-08-21T04:15:56;3.40;;;1.35;;
36709;SDS011;22694;51.040;3.684;2022-08-21T04:18:23;1.98;;;0.95;;
36709;SDS011;22694;51.040;3.684;2022-08-21T04:20:50;3.65;;;1.20;;
36709;SDS011;22694;51.040;3.684;2022-08-21T04:23:18;2.50;;;1.15;;
36709;SDS011;22694;51.040;3.684;2022-08-21T04:25:44;3.97;;;1.13;;
36709;SDS011;22694;51.040;3.684;2022-08-21T04:28:10;2.38;;;1.00;;
36709;SDS011;22694;51.040;3.684;2022-08-21T04:30:36;2.20;;;1.00;;
36709;SDS011;22694;51.040;3.684;2022-08-21T04:33:02;1.85;;;1.23;;
36709;SDS011;22694;51.040;3.684;2022-08-21T04:35:28;2.25;;;1.15;;
36709;SDS011;22694;51.040;3.684;2022-08-21T04:37:55;1.73;;;1.23;;
36709;SDS011;22694;51.040;3.684;2022-08-21T04:40:22;3.70;;;1.25;;
36709;SDS011;22694;51.040;3.684;2022-08-21T04:43:01;4.72;;;1.10;;
36709;SDS011;22694;51.040;3.684;2022-08-21T04:45:33;2.22;;;1.05;;
36709;SDS011;22694;51.040;3.684;2022-08-21T04:48:03;1.90;;;0.82;;
36709;SDS011;22694;51.040;3.684;2022-08-21T04:50:34;2.25;;;1.10;;
36709;SDS011;22694;51.040;3.684;2022-08-21T04:53:05;3.45;;;1.25;;
36709;SDS011;22694;51.040;3.684;2022-08-21T04:55:33;3.03;;;1.10;;
36709;SDS011;22694;51.040;3.684;2022-08-21T04:57:59;3.60;;;1.52;;
36709;SDS011;22694;51.040;3.684;2022-08-21T05:00:25;2.72;;;1.15;;
36709;SDS011;22694;51.040;3.684;2022-08-21T05:02:52;2.45;;;1.00;;
36709;SDS011;22694;51.040;3.684;2022-08-21T05:05:21;2.60;;;1.13;;
36709;SDS011;22694;51.040;3.684;2022-08-21T05:07:47;3.20;;;1.42;;
36709;SDS011;22694;51.040;3.684;2022-08-21T05:10:13;1.27;;;0.93;;
36709;SDS011;22694;51.040;3.684;2022-08-21T05:12:40;1.52;;;1.10;;
36709;SDS011;22694;51.040;3.684;2022-08-21T05:15:08;3.28;;;1.17;;
36709;SDS011;22694;51.040;3.684;2022-08-21T05:17:34;2.75;;;1.27;;
36709;SDS011;22694;51.040;3.684;2022-08-21T05:20:00;4.03;;;1.55;;
36709;SDS011;22694;51.040;3.684;2022-08-21T05:22:26;2.40;;;1.23;;
36709;SDS011;22694;51.040;3.684;2022-08-21T05:24:52;2.03;;;1.27;;
36709;SDS011;22694;51.040;3.684;2022-08-21T05:27:17;2.00;;;1.10;;
36709;SDS011;22694;51.040;3.684;2022-08-21T05:29:43;3.10;;;1.40;;
36709;SDS011;22694;51.040;3.684;2022-08-21T05:32:09;2.15;;;1.20;;
36709;SDS011;22694;51.040;3.684;2022-08-21T05:34:36;2.05;;;1.05;;
36709;SDS011;22694;51.040;3.684;2022-08-21T05:37:02;2.17;;;1.20;;
36709;SDS011;22694;51.040;3.684;2022-08-21T05:39:28;2.92;;;1.15;;
36709;SDS011;22694;51.040;3.684;2022-08-21T05:41:54;2.83;;;1.05;;
36709;SDS011;22694;51.040;3.684;2022-08-21T05:44:19;2.53;;;1.20;;
36709;SDS011;22694;51.040;3.684;2022-08-21T05:46:45;1.58;;;0.98;;
36709;SDS011;22694;51.040;3.684;2022-08-21T05:49:10;2.17;;;1.02;;
36709;SDS011;22694;51.040;3.684;2022-08-21T05:51:36;1.27;;;1.05;;
36709;SDS011;22694;51.040;3.684;2022-08-21T05:54:05;3.08;;;1.27;;
36709;SDS011;22694;51.040;3.684;2022-08-21T05:56:30;1.90;;;1.20;;
36709;SDS011;22694;51.040;3.684;2022-08-21T05:58:57;2.75;;;1.35;;
36709;SDS011;22694;51.040;3.684;2022-08-21T06:01:22;3.40;;;1.60;;
36709;SDS011;22694;51.040;3.684;2022-08-21T06:03:48;1.48;;;1.10;;
36709;SDS011;22694;51.040;3.684;2022-08-21T06:06:14;3.58;;;1.45;;
36709;SDS011;22694;51.040;3.684;2022-08-21T06:08:40;1.83;;;0.90;;
36709;SDS011;22694;51.040;3.684;2022-08-21T06:11:06;2.50;;;1.00;;
36709;SDS011;22694;51.040;3.684;2022-08-21T06:13:34;5.53;;;1.63;;
36709;SDS011;22694;51.040;3.684;2022-08-21T06:16:04;5.47;;;1.70;;
36709;SDS011;22694;51.040;3.684;2022-08-21T06:18:32;5.20;;;1.80;;
36709;SDS011;22694;51.040;3.684;2022-08-21T06:20:59;8.75;;;2.42;;
36709;SDS011;22694;51.040;3.684;2022-08-21T06:23:25;6.20;;;2.03;;
36709;SDS011;22694;51.040;3.684;2022-08-21T06:25:50;4.82;;;1.85;;
36709;SDS011;22694;51.040;3.684;2022-08-21T06:28:16;4.50;;;1.58;;
36709;SDS011;22694;51.040;3.684;2022-08-21T06:30:42;10.30;;;1.80;;
36709;SDS011;22694;51.040;3.684;2022-08-21T06:33:07;4.72;;;1.70;;
36709;SDS011;22694;51.040;3.684;2022-08-21T06:35:33;3.15;;;1.48;;
36709;SDS011;22694;51.040;3.684;2022-08-21T06:38:00;4.43;;;1.55;;
36709;SDS011;22694;51.040;3.684;2022-08-21T06:40:26;5.50;;;2.13;;
36709;SDS011;22694;51.040;3.684;2022-08-21T06:42:53;4.38;;;1.73;;
36709;SDS011;22694;51.040;3.684;2022-08-21T06:45:19;3.22;;;1.80;;
36709;SDS011;22694;51.040;3.684;2022-08-21T06:47:45;5.88;;;2.00;;
36709;SDS011;22694;51.040;3.684;2022-08-21T06:50:11;4.63;;;2.15;;
36709;SDS011;22694;51.040;3.684;2022-08-21T06:52:38;4.10;;;1.85;;
36709;SDS011;22694;51.040;3.684;2022-08-21T06:55:05;4.43;;;1.92;;
36709;SDS011;22694;51.040;3.684;2022-08-21T06:57:32;4.43;;;1.77;;
36709;SDS011;22694;51.040;3.684;2022-08-21T06:59:58;5.60;;;1.90;;
36709;SDS011;22694;51.040;3.684;2022-08-21T07:02:24;3.63;;;1.60;;
36709;SDS011;22694;51.040;3.684;2022-08-21T07:04:50;4.38;;;1.55;;
36709;SDS011;22694;51.040;3.684;2022-08-21T07:07:16;4.22;;;1.73;;
36709;SDS011;22694;51.040;3.684;2022-08-21T07:09:41;3.40;;;1.60;;
36709;SDS011;22694;51.040;3.684;2022-08-21T07:12:07;7.68;;;2.08;;
36709;SDS011;22694;51.040;3.684;2022-08-21T07:14:34;10.05;;;2.22;;
36709;SDS011;22694;51.040;3.684;2022-08-21T07:17:00;11.48;;;2.30;;
36709;SDS011;22694;51.040;3.684;2022-08-21T07:19:26;7.30;;;1.80;;
36709;SDS011;22694;51.040;3.684;2022-08-21T07:21:53;7.22;;;1.60;;
36709;SDS011;22694;51.040;3.684;2022-08-21T07:24:22;7.22;;;2.13;;
36709;SDS011;22694;51.040;3.684;2022-08-21T07:26:48;5.05;;;1.42;;
36709;SDS011;22694;51.040;3.684;2022-08-21T07:29:13;9.45;;;2.55;;
36709;SDS011;22694;51.040;3.684;2022-08-21T07:31:39;5.93;;;1.77;;
36709;SDS011;22694;51.040;3.684;2022-08-21T07:34:05;5.13;;;1.80;;
36709;SDS011;22694;51.040;3.684;2022-08-21T07:36:31;4.28;;;1.48;;
36709;SDS011;22694;51.040;3.684;2022-08-21T07:38:57;6.97;;;1.60;;
36709;SDS011;22694;51.040;3.684;2022-08-21T07:41:25;4.00;;;1.50;;
36709;SDS011;22694;51.040;3.684;2022-08-21T07:43:53;6.07;;;1.58;;
36709;SDS011;22694;51.040;3.684;2022-08-21T07:46:22;4.25;;;1.60;;
36709;SDS011;22694;51.040;3.684;2022-08-21T07:48:49;5.18;;;1.80;;
36709;SDS011;22694;51.040;3.684;2022-08-21T07:51:15;4.03;;;1.55;;
36709;SDS011;22694;51.040;3.684;2022-08-21T07:53:47;4.78;;;1.58;;
36709;SDS011;22694;51.040;3.684;2022-08-21T07:56:14;8.27;;;2.40;;
36709;SDS011;22694;51.040;3.684;2022-08-21T07:58:40;2.75;;;1.48;;
36709;SDS011;22694;51.040;3.684;2022-08-21T08:01:06;3.53;;;1.40;;
36709;SDS011;22694;51.040;3.684;2022-08-21T08:03:32;4.28;;;1.50;;
36709;SDS011;22694;51.040;3.684;2022-08-21T08:05:58;4.22;;;1.67;;
36709;SDS011;22694;51.040;3.684;2022-08-21T08:08:24;3.90;;;1.52;;
36709;SDS011;22694;51.040;3.684;2022-08-21T08:10:50;3.70;;;1.55;;
36709;SDS011;22694;51.040;3.684;2022-08-21T08:13:17;5.07;;;1.50;;
36709;SDS011;22694;51.040;3.684;2022-08-21T08:15:43;4.22;;;1.60;;
36709;SDS011;22694;51.040;3.684;2022-08-21T08:18:08;4.60;;;1.40;;
36709;SDS011;22694;51.040;3.684;2022-08-21T08:20:34;3.90;;;1.60;;
36709;SDS011;22694;51.040;3.684;2022-08-21T08:23:00;4.30;;;1.42;;
36709;SDS011;22694;51.040;3.684;2022-08-21T08:25:26;2.88;;;1.48;;
36709;SDS011;22694;51.040;3.684;2022-08-21T08:27:52;4.40;;;1.80;;
36709;SDS011;22694;51.040;3.684;2022-08-21T08:30:19;4.35;;;1.48;;
36709;SDS011;22694;51.040;3.684;2022-08-21T08:32:48;3.28;;;1.42;;
36709;SDS011;22694;51.040;3.684;2022-08-21T08:35:15;5.90;;;2.03;;
36709;SDS011;22694;51.040;3.684;2022-08-21T08:37:41;6.93;;;2.33;;
36709;SDS011;22694;51.040;3.684;2022-08-21T08:40:12;9.57;;;2.60;;
36709;SDS011;22694;51.040;3.684;2022-08-21T08:42:45;10.45;;;2.88;;
36709;SDS011;22694;51.040;3.684;2022-08-21T08:45:13;8.73;;;3.25;;
36709;SDS011;22694;51.040;3.684;2022-08-21T08:47:52;13.82;;;3.40;;
36709;SDS011;22694;51.040;3.684;2022-08-21T08:50:28;9.30;;;3.03;;
36709;SDS011;22694;51.040;3.684;2022-08-21T08:53:04;8.25;;;3.03;;
36709;SDS011;22694;51.040;3.684;2022-08-21T08:58:50;6.55;;;3.05;;
36709;SDS011;22694;51.040;3.684;2022-08-21T09:00:59;9.18;;;3.10;;
36709;SDS011;22694;51.040;3.684;2022-08-21T09:03:25;10.07;;;2.90;;
36709;SDS011;22694;51.040;3.684;2022-08-21T09:05:55;5.63;;;2.38;;
36709;SDS011;22694;51.040;3.684;2022-08-21T09:08:52;8.77;;;2.85;;
36709;SDS011;22694;51.040;3.684;2022-08-21T09:11:40;8.18;;;2.85;;
36709;SDS011;22694;51.040;3.684;2022-08-21T09:17:29;10.68;;;3.17;;
36709;SDS011;22694;51.040;3.684;2022-08-21T09:20:17;9.63;;;3.10;;
36709;SDS011;22694;51.040;3.684;2022-08-21T09:25:43;8.70;;;2.80;;
36709;SDS011;22694;51.040;3.684;2022-08-21T09:28:18;10.88;;;3.03;;
36709;SDS011;22694;51.040;3.684;2022-08-21T09:30:43;8.73;;;2.53;;
36709;SDS011;22694;51.040;3.684;2022-08-21T09:33:09;8.68;;;2.47;;
36709;SDS011;22694;51.040;3.684;2022-08-21T09:35:47;9.48;;;2.58;;
36709;SDS011;22694;51.040;3.684;2022-08-21T09:41:16;6.68;;;2.40;;
36709;SDS011;22694;51.040;3.684;2022-08-21T09:43:53;6.28;;;1.83;;
36709;SDS011;22694;51.040;3.684;2022-08-21T09:46:20;4.97;;;1.88;;
36709;SDS011;22694;51.040;3.684;2022-08-21T09:48:48;5.03;;;1.83;;
36709;SDS011;22694;51.040;3.684;2022-08-21T09:51:20;4.22;;;1.83;;
36709;SDS011;22694;51.040;3.684;2022-08-21T09:53:52;6.57;;;2.28;;
36709;SDS011;22694;51.040;3.684;2022-08-21T09:59:17;4.88;;;2.05;;
36709;SDS011;22694;51.040;3.684;2022-08-21T10:01:56;6.05;;;2.10;;
36709;SDS011;22694;51.040;3.684;2022-08-21T10:04:29;5.88;;;2.00;;
36709;SDS011;22694;51.040;3.684;2022-08-21T10:07:10;6.53;;;2.22;;
36709;SDS011;22694;51.040;3.684;2022-08-21T10:09:39;5.50;;;2.00;;
36709;SDS011;22694;51.040;3.684;2022-08-21T10:20:19;6.53;;;1.85;;
36709;SDS011;22694;51.040;3.684;2022-08-21T10:25:17;5.15;;;2.05;;
36709;SDS011;22694;51.040;3.684;2022-08-21T10:30:39;5.80;;;1.80;;
36709;SDS011;22694;51.040;3.684;2022-08-21T10:33:20;7.60;;;2.45;;
36709;SDS011;22694;51.040;3.684;2022-08-21T10:36:06;8.52;;;2.20;;
36709;SDS011;22694;51.040;3.684;2022-08-21T10:46:39;3.78;;;1.30;;
36709;SDS011;22694;51.040;3.684;2022-08-21T10:52:24;6.20;;;1.75;;
36709;SDS011;22694;51.040;3.684;2022-08-21T11:00:10;11.30;;;3.60;;
36709;SDS011;22694;51.040;3.684;2022-08-21T11:02:44;62.05;;;35.55;;
36709;SDS011;22694;51.040;3.684;2022-08-21T11:05:29;95.40;;;56.38;;
36709;SDS011;22694;51.040;3.684;2022-08-21T11:08:02;117.85;;;66.35;;
36709;SDS011;22694;51.040;3.684;2022-08-21T11:11:11;124.38;;;73.00;;
36709;SDS011;22694;51.040;3.684;2022-08-21T11:16:39;100.97;;;56.08;;
36709;SDS011;22694;51.040;3.684;2022-08-21T11:19:19;76.35;;;43.63;;
36709;SDS011;22694;51.040;3.684;2022-08-21T11:21:55;51.17;;;30.30;;
36709;SDS011;22694;51.040;3.684;2022-08-21T11:29:38;11.90;;;7.40;;
36709;SDS011;22694;51.040;3.684;2022-08-21T11:43:17;18.25;;;11.25;;
36709;SDS011;22694;51.040;3.684;2022-08-21T11:51:27;17.55;;;10.65;;
36709;SDS011;22694;51.040;3.684;2022-08-21T11:54:05;16.27;;;9.50;;
36709;SDS011;22694;51.040;3.684;2022-08-21T11:56:36;19.10;;;10.57;;
36709;SDS011;22694;51.040;3.684;2022-08-21T11:59:11;16.65;;;10.73;;
36709;SDS011;22694;51.040;3.684;2022-08-21T12:01:42;16.60;;;10.30;;
36709;SDS011;22694;51.040;3.684;2022-08-21T12:04:26;14.57;;;10.35;;
36709;SDS011;22694;51.040;3.684;2022-08-21T12:06:54;14.70;;;9.75;;
36709;SDS011;22694;51.040;3.684;2022-08-21T12:11:49;16.85;;;10.40;;
36709;SDS011;22694;51.040;3.684;2022-08-21T12:14:24;17.77;;;10.73;;
36709;SDS011;22694;51.040;3.684;2022-08-21T12:17:06;20.45;;;11.60;;
36709;SDS011;22694;51.040;3.684;2022-08-21T12:19:33;16.08;;;10.60;;
36709;SDS011;22694;51.040;3.684;2022-08-21T12:22:08;21.02;;;10.43;;
36709;SDS011;22694;51.040;3.684;2022-08-21T12:24:40;17.10;;;9.90;;
36709;SDS011;22694;51.040;3.684;2022-08-21T12:29:45;15.10;;;8.32;;
36709;SDS011;22694;51.040;3.684;2022-08-21T12:34:46;11.35;;;7.38;;
36709;SDS011;22694;51.040;3.684;2022-08-21T12:37:24;13.35;;;7.30;;
36709;SDS011;22694;51.040;3.684;2022-08-21T12:40:12;14.85;;;8.00;;
36709;SDS011;22694;51.040;3.684;2022-08-21T12:42:43;11.57;;;7.57;;
36709;SDS011;22694;51.040;3.684;2022-08-21T12:48:26;13.85;;;8.02;;
36709;SDS011;22694;51.040;3.684;2022-08-21T12:53:35;13.75;;;8.25;;
36709;SDS011;22694;51.040;3.684;2022-08-21T12:56:09;11.07;;;6.85;;
36709;SDS011;22694;51.040;3.684;2022-08-21T12:58:39;11.05;;;6.80;;
36709;SDS011;22694;51.040;3.684;2022-08-21T13:01:07;10.50;;;5.40;;
36709;SDS011;22694;51.040;3.684;2022-08-21T13:03:59;9.10;;;5.10;;
36709;SDS011;22694;51.040;3.684;2022-08-21T13:06:29;10.00;;;4.80;;
36709;SDS011;22694;51.040;3.684;2022-08-21T13:09:04;7.85;;;5.00;;
36709;SDS011;22694;51.040;3.684;2022-08-21T13:11:33;9.82;;;5.05;;
36709;SDS011;22694;51.040;3.684;2022-08-21T13:14:00;7.97;;;3.78;;
36709;SDS011;22694;51.040;3.684;2022-08-21T13:16:28;8.50;;;3.80;;
36709;SDS011;22694;51.040;3.684;2022-08-21T13:19:01;9.45;;;4.38;;
36709;SDS011;22694;51.040;3.684;2022-08-21T13:21:34;6.82;;;3.90;;
36709;SDS011;22694;51.040;3.684;2022-08-21T13:24:12;5.93;;;2.95;;
36709;SDS011;22694;51.040;3.684;2022-08-21T13:26:43;9.50;;;3.70;;
36709;SDS011;22694;51.040;3.684;2022-08-21T13:29:10;7.75;;;3.45;;
36709;SDS011;22694;51.040;3.684;2022-08-21T13:31:37;6.60;;;2.85;;
36709;SDS011;22694;51.040;3.684;2022-08-21T13:34:07;6.78;;;2.45;;
36709;SDS011;22694;51.040;3.684;2022-08-21T13:36:36;4.97;;;2.42;;
36709;SDS011;22694;51.040;3.684;2022-08-21T13:39:06;6.55;;;2.40;;
36709;SDS011;22694;51.040;3.684;2022-08-21T13:41:35;5.70;;;2.72;;
36709;SDS011;22694;51.040;3.684;2022-08-21T13:44:05;7.95;;;2.95;;
36709;SDS011;22694;51.040;3.684;2022-08-21T13:46:39;6.05;;;3.00;;
36709;SDS011;22694;51.040;3.684;2022-08-21T13:49:06;6.63;;;3.50;;
36709;SDS011;22694;51.040;3.684;2022-08-21T13:51:34;6.00;;;3.45;;
36709;SDS011;22694;51.040;3.684;2022-08-21T13:54:01;5.50;;;2.80;;
36709;SDS011;22694;51.040;3.684;2022-08-21T13:56:41;6.13;;;3.20;;
36709;SDS011;22694;51.040;3.684;2022-08-21T13:59:08;5.10;;;2.92;;
36709;SDS011;22694;51.040;3.684;2022-08-21T14:01:35;5.78;;;2.80;;
36709;SDS011;22694;51.040;3.684;2022-08-21T14:04:23;5.25;;;2.70;;
36709;SDS011;22694;51.040;3.684;2022-08-21T14:06:57;5.07;;;2.67;;
36709;SDS011;22694;51.040;3.684;2022-08-21T14:09:33;6.47;;;2.83;;
36709;SDS011;22694;51.040;3.684;2022-08-21T14:12:15;7.68;;;2.95;;
36709;SDS011;22694;51.040;3.684;2022-08-21T14:14:44;7.30;;;2.92;;
36709;SDS011;22694;51.040;3.684;2022-08-21T14:17:13;6.45;;;2.85;;
36709;SDS011;22694;51.040;3.684;2022-08-21T14:19:41;5.68;;;2.92;;
36709;SDS011;22694;51.040;3.684;2022-08-21T14:24:58;4.47;;;2.95;;
36709;SDS011;22694;51.040;3.684;2022-08-21T14:27:26;5.90;;;3.15;;
36709;SDS011;22694;51.040;3.684;2022-08-21T14:29:57;6.82;;;3.33;;
36709;SDS011;22694;51.040;3.684;2022-08-21T14:32:36;5.00;;;2.72;;
36709;SDS011;22694;51.040;3.684;2022-08-21T14:35:03;4.47;;;2.67;;
36709;SDS011;22694;51.040;3.684;2022-08-21T14:37:29;8.10;;;2.97;;
36709;SDS011;22694;51.040;3.684;2022-08-21T14:39:55;6.18;;;2.97;;
36709;SDS011;22694;51.040;3.684;2022-08-21T14:42:21;5.63;;;2.58;;
36709;SDS011;22694;51.040;3.684;2022-08-21T14:44:46;4.05;;;2.63;;
36709;SDS011;22694;51.040;3.684;2022-08-21T14:47:12;4.95;;;2.75;;
36709;SDS011;22694;51.040;3.684;2022-08-21T14:49:38;8.13;;;2.97;;
36709;SDS011;22694;51.040;3.684;2022-08-21T14:52:04;6.85;;;2.80;;
36709;SDS011;22694;51.040;3.684;2022-08-21T14:54:30;4.65;;;2.40;;
36709;SDS011;22694;51.040;3.684;2022-08-21T14:56:57;4.45;;;2.50;;
36709;SDS011;22694;51.040;3.684;2022-08-21T14:59:26;5.53;;;2.63;;
36709;SDS011;22694;51.040;3.684;2022-08-21T15:01:51;5.65;;;2.90;;
36709;SDS011;22694;51.040;3.684;2022-08-21T15:04:17;5.90;;;3.00;;
36709;SDS011;22694;51.040;3.684;2022-08-21T15:06:43;5.75;;;2.80;;
36709;SDS011;22694;51.040;3.684;2022-08-21T15:09:09;5.25;;;2.75;;
36709;SDS011;22694;51.040;3.684;2022-08-21T15:11:34;4.97;;;2.65;;
36709;SDS011;22694;51.040;3.684;2022-08-21T15:14:02;5.00;;;2.70;;
36709;SDS011;22694;51.040;3.684;2022-08-21T15:16:29;4.45;;;2.60;;
36709;SDS011;22694;51.040;3.684;2022-08-21T15:18:56;5.72;;;2.67;;
36709;SDS011;22694;51.040;3.684;2022-08-21T15:21:22;3.40;;;2.30;;
36709;SDS011;22694;51.040;3.684;2022-08-21T15:23:48;3.63;;;2.53;;
36709;SDS011;22694;51.040;3.684;2022-08-21T15:26:13;5.20;;;3.00;;
36709;SDS011;22694;51.040;3.684;2022-08-21T15:28:39;7.85;;;2.67;;
36709;SDS011;22694;51.040;3.684;2022-08-21T15:31:05;3.70;;;2.40;;
36709;SDS011;22694;51.040;3.684;2022-08-21T15:33:31;6.05;;;2.80;;
36709;SDS011;22694;51.040;3.684;2022-08-21T15:35:57;5.25;;;2.92;;
36709;SDS011;22694;51.040;3.684;2022-08-21T15:38:23;5.43;;;2.78;;
36709;SDS011;22694;51.040;3.684;2022-08-21T15:40:49;5.47;;;2.47;;
36709;SDS011;22694;51.040;3.684;2022-08-21T15:43:25;6.45;;;2.75;;
36709;SDS011;22694;51.040;3.684;2022-08-21T15:45:53;6.07;;;2.80;;
36709;SDS011;22694;51.040;3.684;2022-08-21T15:48:19;5.95;;;3.00;;
36709;SDS011;22694;51.040;3.684;2022-08-21T15:50:45;4.78;;;2.50;;
36709;SDS011;22694;51.040;3.684;2022-08-21T15:53:11;3.72;;;2.45;;
36709;SDS011;22694;51.040;3.684;2022-08-21T15:55:37;4.20;;;2.17;;
36709;SDS011;22694;51.040;3.684;2022-08-21T15:58:03;6.25;;;2.70;;
36709;SDS011;22694;51.040;3.684;2022-08-21T16:00:30;5.68;;;2.42;;
36709;SDS011;22694;51.040;3.684;2022-08-21T16:02:58;4.80;;;2.80;;
36709;SDS011;22694;51.040;3.684;2022-08-21T16:05:25;6.13;;;2.83;;
36709;SDS011;22694;51.040;3.684;2022-08-21T16:07:51;5.45;;;2.42;;
36709;SDS011;22694;51.040;3.684;2022-08-21T16:10:18;4.72;;;2.22;;
36709;SDS011;22694;51.040;3.684;2022-08-21T16:12:55;4.43;;;2.45;;
36709;SDS011;22694;51.040;3.684;2022-08-21T16:17:53;3.63;;;1.92;;
36709;SDS011;22694;51.040;3.684;2022-08-21T16:20:22;5.65;;;2.55;;
36709;SDS011;22694;51.040;3.684;2022-08-21T16:22:51;5.55;;;2.22;;
36709;SDS011;22694;51.040;3.684;2022-08-21T16:25:17;3.88;;;2.25;;